Twin Lakes, Idaho
Current Conditions -  °F | °C
As of 3:15 PM on Thursday 23 Oct 2014 (Local Time) from KCOE Reporting Station
Broken Clouds Broken Clouds  
Wind Chill: 52°   Ceiling: 5000
Heat Index: 52°   Visibility: 10mi
Dew Point: 46°   Wind: 7mph
Humidity: 82%   Direction: 200°SSW
Pressure: 29.8"   Gusts: NA
Location:  47.8426°N, 116.907°W
Report Text: KCOE 232215Z AUTO 20006KT 10SM FEW045 BKN050 BKN070 11/08 A2980 RMK AO1
Loading
Personal Weather Stations






























Interactive Weather Map
Tropical Storm Tracking
New forecast layout! Learn more

10-Day Weather Forecast

Advertisements
Track Severe Weather on mobile